Shin Yu Maru — JD3290 — position and weather

sailwx.info

Track history (hours):
 
Tides and Currents Weather Stations Pressure Air Temp Water Temp Dewpoint Dewpoint Depression Visibility Wind Speed Wind Dir Waves Ship Positions

Shin Yu Maru

Last reported at 2017-Nov-20 00:21 UTC. Time now 2017-Nov-21 23:16 UTC.
Position N 34°40' E 135°25'.

Length 74 m; draft 4.7 m.

Type: Cargo ship. MMSI: 431003256.

Date/timePositionNaut miles runAvg speedWind from/ knotsBaromVisibWave heightAir tempDewpointWater temp
2017-Nov-20 00:21N 34°40' E 135°25'0 0.1
2017-Nov-19 23:57N 34°40' E 135°25'0 0.8
2017-Nov-19 23:31N 34°40' E 135°25'4 7.9
2017-Nov-19 23:01N 34°39' E 135°21'2 2.3
2017-Nov-19 22:22N 34°37' E 135°20'0 0.0
2017-Nov-19 21:58N 34°37' E 135°20'0 0.0
2017-Nov-19 21:28N 34°37' E 135°20'0 0.0
2017-Nov-19 20:58N 34°37' E 135°20'0 0.0
2017-Nov-19 19:16N 34°37' E 135°20'0 0.0
2017-Nov-19 18:40N 34°37' E 135°20'0 0.0
2017-Nov-19 18:28N 34°37' E 135°20'0 0.0
2017-Nov-19 17:53N 34°37' E 135°20'2 4.1
2017-Nov-19 17:30N 34°36' E 135°18'612.3
2017-Nov-19 17:00N 34°35' E 135°11'714.1
2017-Nov-19 16:30N 34°36' E 135°03'15 0.6
2017-Nov-18 15:05N 34°41' E 134°45'110.6
2017-Nov-18 14:58N 34°40' E 134°46'711.6
2017-Nov-18 14:22N 34°37' E 134°54'612.6
2017-Nov-18 13:53N 34°37' E 135°02'512.0
2017-Nov-18 13:30N 34°34' E 135°06'1412.4
2017-Nov-18 12:22N 34°21' E 135°01'511.9
2017-Nov-18 11:59N 34°16' E 134°59'612.5
2017-Nov-18 11:30N 34°10' E 135°00'22710.4
2017-Nov-17 13:34N 34°58' E 139°30'113.3
2017-Nov-17 13:29N 34°59' E 139°31'713.7
2017-Nov-17 13:00N 35°03' E 139°37'714.0
2017-Nov-17 12:30N 35°08' E 139°43'713.7
2017-Nov-17 12:00N 35°15' E 139°46'713.3
2017-Nov-17 11:30N 35°21' E 139°42'612.8
2017-Nov-17 11:01N 35°26' E 139°46'9 0.5
2017-Nov-16 16:37N 35°32' E 139°54'113.1
2017-Nov-16 16:30N 35°31' E 139°53'712.7
2017-Nov-16 16:00N 35°26' E 139°48'612.4
2017-Nov-16 15:30N 35°21' E 139°45'612.0
2017-Nov-16 15:00N 35°15' E 139°47'611.9
2017-Nov-16 14:30N 35°09' E 139°45'611.7
2017-Nov-16 14:00N 35°05' E 139°41'23810.7
2017-Nov-15 15:51N 34°12' E 134°59'615.6
2017-Nov-15 15:29N 34°18' E 134°59'714.3
2017-Nov-15 14:59N 34°25' E 135°00'713.8
2017-Nov-15 14:30N 34°32' E 135°02'16 0.7
2017-Nov-14 15:43N 34°41' E 134°46'312.3
2017-Nov-14 15:30N 34°40' E 134°49'611.1
2017-Nov-14 15:00N 34°37' E 134°55'611.0
2017-Nov-14 14:30N 34°37' E 135°02'5 9.6
2017-Nov-14 14:00N 34°34' E 135°05'1612.5
2017-Nov-14 12:43N 34°18' E 134°60'311.4
2017-Nov-14 12:26N 34°15' E 134°60'512.5
2017-Nov-14 12:00N 34°10' E 135°00'254 6.4
2017-Nov-12 20:03N 35°31' E 139°54'012.8
2017-Nov-12 20:01N 35°31' E 139°54'712.4
2017-Nov-12 19:25N 35°25' E 139°48'512.2
2017-Nov-12 19:01N 35°21' E 139°45'611.0
2017-Nov-12 18:30N 35°16' E 139°47'611.8
2017-Nov-12 18:00N 35°10' E 139°46'612.4
2017-Nov-12 17:30N 35°05' E 139°41'713.1
2017-Nov-12 17:00N 35°01' E 139°35'23310.4
2017-Nov-11 18:37N 34°10' E 134°59'313.9
2017-Nov-11 18:25N 34°12' E 134°59'1012.9
2017-Nov-11 17:37N 34°23' E 134°59'212.7
2017-Nov-11 17:30N 34°24' E 134°60'612.7
2017-Nov-11 17:00N 34°30' E 135°02'611.5
2017-Nov-11 16:30N 34°36' E 135°02'12 0.3
2017-Nov-10 00:50N 34°41' E 134°49'512.5
2017-Nov-10 00:25N 34°37' E 134°54'  
Track history (hours):
 
Tides and Currents Weather Stations Pressure Air Temp Water Temp Dewpoint Dewpoint Depression Visibility Wind Speed Wind Dir Waves Ship Positions

Shin Yu Maru

Last reported at 2017-Nov-20 00:21 UTC. Time now 2017-Nov-21 23:16 UTC.
Position N 34°40' E 135°25'.

Length 74 m; draft 4.7 m.

Type: Cargo ship. MMSI: 431003256.

Date/timePositionNaut miles runAvg speedWind from/ knotsBaromVisibWave heightAir tempDewpointWater temp
2017-Nov-20 00:21N 34°40' E 135°25'0 0.1
2017-Nov-19 23:57N 34°40' E 135°25'0 0.8
2017-Nov-19 23:31N 34°40' E 135°25'4 7.9
2017-Nov-19 23:01N 34°39' E 135°21'2 2.3
2017-Nov-19 22:22N 34°37' E 135°20'0 0.0
2017-Nov-19 21:58N 34°37' E 135°20'0 0.0
2017-Nov-19 21:28N 34°37' E 135°20'0 0.0
2017-Nov-19 20:58N 34°37' E 135°20'0 0.0
2017-Nov-19 19:16N 34°37' E 135°20'0 0.0
2017-Nov-19 18:40N 34°37' E 135°20'0 0.0
2017-Nov-19 18:28N 34°37' E 135°20'0 0.0
2017-Nov-19 17:53N 34°37' E 135°20'2 4.1
2017-Nov-19 17:30N 34°36' E 135°18'612.3
2017-Nov-19 17:00N 34°35' E 135°11'714.1
2017-Nov-19 16:30N 34°36' E 135°03'15 0.6
2017-Nov-18 15:05N 34°41' E 134°45'110.6
2017-Nov-18 14:58N 34°40' E 134°46'711.6
2017-Nov-18 14:22N 34°37' E 134°54'612.6
2017-Nov-18 13:53N 34°37' E 135°02'512.0
2017-Nov-18 13:30N 34°34' E 135°06'1412.4
2017-Nov-18 12:22N 34°21' E 135°01'511.9
2017-Nov-18 11:59N 34°16' E 134°59'612.5
2017-Nov-18 11:30N 34°10' E 135°00'22710.4
2017-Nov-17 13:34N 34°58' E 139°30'113.3
2017-Nov-17 13:29N 34°59' E 139°31'713.7
2017-Nov-17 13:00N 35°03' E 139°37'714.0
2017-Nov-17 12:30N 35°08' E 139°43'713.7
2017-Nov-17 12:00N 35°15' E 139°46'713.3
2017-Nov-17 11:30N 35°21' E 139°42'612.8
2017-Nov-17 11:01N 35°26' E 139°46'9 0.5
2017-Nov-16 16:37N 35°32' E 139°54'113.1
2017-Nov-16 16:30N 35°31' E 139°53'712.7
2017-Nov-16 16:00N 35°26' E 139°48'612.4
2017-Nov-16 15:30N 35°21' E 139°45'612.0
2017-Nov-16 15:00N 35°15' E 139°47'611.9
2017-Nov-16 14:30N 35°09' E 139°45'611.7
2017-Nov-16 14:00N 35°05' E 139°41'23810.7
2017-Nov-15 15:51N 34°12' E 134°59'615.6
2017-Nov-15 15:29N 34°18' E 134°59'714.3
2017-Nov-15 14:59N 34°25' E 135°00'713.8
2017-Nov-15 14:30N 34°32' E 135°02'16 0.7
2017-Nov-14 15:43N 34°41' E 134°46'312.3
2017-Nov-14 15:30N 34°40' E 134°49'611.1
2017-Nov-14 15:00N 34°37' E 134°55'611.0
2017-Nov-14 14:30N 34°37' E 135°02'5 9.6
2017-Nov-14 14:00N 34°34' E 135°05'1612.5
2017-Nov-14 12:43N 34°18' E 134°60'311.4
2017-Nov-14 12:26N 34°15' E 134°60'512.5
2017-Nov-14 12:00N 34°10' E 135°00'254 6.4
2017-Nov-12 20:03N 35°31' E 139°54'012.8
2017-Nov-12 20:01N 35°31' E 139°54'712.4
2017-Nov-12 19:25N 35°25' E 139°48'512.2
2017-Nov-12 19:01N 35°21' E 139°45'611.0
2017-Nov-12 18:30N 35°16' E 139°47'611.8
2017-Nov-12 18:00N 35°10' E 139°46'612.4
2017-Nov-12 17:30N 35°05' E 139°41'713.1
2017-Nov-12 17:00N 35°01' E 139°35'23310.4
2017-Nov-11 18:37N 34°10' E 134°59'313.9
2017-Nov-11 18:25N 34°12' E 134°59'1012.9
2017-Nov-11 17:37N 34°23' E 134°59'212.7
2017-Nov-11 17:30N 34°24' E 134°60'612.7
2017-Nov-11 17:00N 34°30' E 135°02'611.5
2017-Nov-11 16:30N 34°36' E 135°02'12 0.3
2017-Nov-10 00:50N 34°41' E 134°49'512.5
2017-Nov-10 00:25N 34°37' E 134°54'  

Dump ship's entire track history